sensor_id;sensor_type;location;lat;lon;timestamp;pressure;altitude;pressure_sealevel;temperature;humidity
78485;BME280;67773;50.806;8.776;2023-05-09T00:01:33;99943.91;;;13.09;82.58
78485;BME280;67773;50.806;8.776;2023-05-09T00:03:59;99945.63;;;13.10;82.58
78485;BME280;67773;50.806;8.776;2023-05-09T00:06:26;99938.25;;;13.15;82.83
78485;BME280;67773;50.806;8.776;2023-05-09T00:08:54;99947.19;;;13.14;82.21
78485;BME280;67773;50.806;8.776;2023-05-09T00:11:20;99941.06;;;13.12;82.54
78485;BME280;67773;50.806;8.776;2023-05-09T00:13:49;99944.59;;;13.12;82.56
78485;BME280;67773;50.806;8.776;2023-05-09T00:16:16;99940.91;;;13.15;82.77
78485;BME280;67773;50.806;8.776;2023-05-09T00:18:42;99934.72;;;13.14;82.91
78485;BME280;67773;50.806;8.776;2023-05-09T00:21:08;99937.41;;;13.14;82.95
78485;BME280;67773;50.806;8.776;2023-05-09T00:23:34;99933.69;;;13.17;82.98
78485;BME280;67773;50.806;8.776;2023-05-09T00:25:59;99928.34;;;13.17;82.80
78485;BME280;67773;50.806;8.776;2023-05-09T00:28:25;99917.44;;;13.21;83.10
78485;BME280;67773;50.806;8.776;2023-05-09T00:30:51;99919.41;;;13.18;82.69
78485;BME280;67773;50.806;8.776;2023-05-09T00:33:16;99920.22;;;13.20;82.70
78485;BME280;67773;50.806;8.776;2023-05-09T00:35:42;99916.50;;;13.22;83.36
78485;BME280;67773;50.806;8.776;2023-05-09T00:38:07;99910.31;;;13.22;83.04
78485;BME280;67773;50.806;8.776;2023-05-09T00:40:32;99911.09;;;13.24;83.11
78485;BME280;67773;50.806;8.776;2023-05-09T00:42:58;99904.03;;;13.23;82.40
78485;BME280;67773;50.806;8.776;2023-05-09T00:45:24;99909.34;;;13.23;82.63
78485;BME280;67773;50.806;8.776;2023-05-09T00:47:49;99901.22;;;13.26;82.46
78485;BME280;67773;50.806;8.776;2023-05-09T00:50:15;99904.44;;;13.31;82.80
78485;BME280;67773;50.806;8.776;2023-05-09T00:52:41;99901.03;;;13.29;82.84
78485;BME280;67773;50.806;8.776;2023-05-09T00:55:07;99894.94;;;13.27;83.08
78485;BME280;67773;50.806;8.776;2023-05-09T00:57:33;99893.38;;;13.23;82.55
78485;BME280;67773;50.806;8.776;2023-05-09T00:59:59;99890.78;;;13.21;82.81
78485;BME280;67773;50.806;8.776;2023-05-09T01:02:25;99884.59;;;13.21;82.91
78485;BME280;67773;50.806;8.776;2023-05-09T01:04:51;99878.94;;;13.27;82.30
78485;BME280;67773;50.806;8.776;2023-05-09T01:07:32;99879.13;;;13.24;82.60
78485;BME280;67773;50.806;8.776;2023-05-09T01:10:05;99878.06;;;13.26;82.16
78485;BME280;67773;50.806;8.776;2023-05-09T01:12:48;99885.63;;;13.34;82.23
78485;BME280;67773;50.806;8.776;2023-05-09T01:15:31;99880.47;;;13.31;82.37
78485;BME280;67773;50.806;8.776;2023-05-09T01:20:46;99854.69;;;13.16;82.47
78485;BME280;67773;50.806;8.776;2023-05-09T01:31:37;99852.28;;;13.27;81.96
78485;BME280;67773;50.806;8.776;2023-05-09T01:34:04;99857.41;;;13.30;82.82
78485;BME280;67773;50.806;8.776;2023-05-09T01:36:31;99849.50;;;13.28;82.34
78485;BME280;67773;50.806;8.776;2023-05-09T01:38:58;99850.56;;;13.26;82.41
78485;BME280;67773;50.806;8.776;2023-05-09T01:41:29;99847.03;;;13.25;82.47
78485;BME280;67773;50.806;8.776;2023-05-09T01:43:56;99850.56;;;13.26;82.54
78485;BME280;67773;50.806;8.776;2023-05-09T01:46:24;99851.50;;;13.25;82.49
78485;BME280;67773;50.806;8.776;2023-05-09T01:48:51;99852.94;;;13.31;82.92
78485;BME280;67773;50.806;8.776;2023-05-09T01:51:18;99852.28;;;13.27;82.84
78485;BME280;67773;50.806;8.776;2023-05-09T01:53:47;99840.84;;;13.25;82.90
78485;BME280;67773;50.806;8.776;2023-05-09T01:56:14;99849.59;;;13.27;82.83
78485;BME280;67773;50.806;8.776;2023-05-09T01:58:39;99840.16;;;13.21;82.74
78485;BME280;67773;50.806;8.776;2023-05-09T02:01:07;99844.38;;;13.25;82.92
78485;BME280;67773;50.806;8.776;2023-05-09T02:03:36;99848.06;;;13.23;82.38
78485;BME280;67773;50.806;8.776;2023-05-09T02:06:03;99839.44;;;13.18;82.72
78485;BME280;67773;50.806;8.776;2023-05-09T02:08:30;99837.84;;;13.15;83.03
78485;BME280;67773;50.806;8.776;2023-05-09T02:10:56;99828.03;;;13.16;83.08
78485;BME280;67773;50.806;8.776;2023-05-09T02:13:21;99838.19;;;13.25;82.23
78485;BME280;67773;50.806;8.776;2023-05-09T02:15:47;99837.59;;;13.20;82.77
78485;BME280;67773;50.806;8.776;2023-05-09T02:18:12;99820.97;;;13.15;82.54
78485;BME280;67773;50.806;8.776;2023-05-09T02:20:38;99827.88;;;13.19;82.42
78485;BME280;67773;50.806;8.776;2023-05-09T02:23:03;99827.78;;;13.20;83.08
78485;BME280;67773;50.806;8.776;2023-05-09T02:25:30;99821.13;;;13.27;82.50
78485;BME280;67773;50.806;8.776;2023-05-09T02:27:57;99821.13;;;13.27;82.53
78485;BME280;67773;50.806;8.776;2023-05-09T02:30:25;99822.34;;;13.22;82.37
78485;BME280;67773;50.806;8.776;2023-05-09T02:33:00;99817.28;;;13.17;82.48
78485;BME280;67773;50.806;8.776;2023-05-09T02:35:27;99814.78;;;13.14;82.66
78485;BME280;67773;50.806;8.776;2023-05-09T02:37:53;99813.09;;;13.13;83.18
78485;BME280;67773;50.806;8.776;2023-05-09T02:40:19;99820.19;;;13.13;82.32
78485;BME280;67773;50.806;8.776;2023-05-09T02:42:46;99805.16;;;13.12;82.86
78485;BME280;67773;50.806;8.776;2023-05-09T02:45:11;99807.81;;;13.12;82.58
78485;BME280;67773;50.806;8.776;2023-05-09T02:47:37;99815.81;;;13.12;82.27
78485;BME280;67773;50.806;8.776;2023-05-09T02:50:03;99811.28;;;13.14;82.69
78485;BME280;67773;50.806;8.776;2023-05-09T02:52:29;99821.16;;;13.12;83.02
78485;BME280;67773;50.806;8.776;2023-05-09T02:54:54;99812.91;;;13.16;82.72
78485;BME280;67773;50.806;8.776;2023-05-09T02:57:19;99821.94;;;13.14;83.08
78485;BME280;67773;50.806;8.776;2023-05-09T02:59:45;99812.56;;;13.07;82.69
78485;BME280;67773;50.806;8.776;2023-05-09T03:02:10;99804.69;;;13.05;82.18
78485;BME280;67773;50.806;8.776;2023-05-09T03:04:36;99806.63;;;13.01;83.44
78485;BME280;67773;50.806;8.776;2023-05-09T03:07:01;99797.13;;;12.97;82.43
78485;BME280;67773;50.806;8.776;2023-05-09T03:09:27;99789.31;;;12.94;83.12
78485;BME280;67773;50.806;8.776;2023-05-09T03:11:53;99782.53;;;12.89;82.75
78485;BME280;67773;50.806;8.776;2023-05-09T03:14:19;99787.00;;;12.88;83.81
78485;BME280;67773;50.806;8.776;2023-05-09T03:16:44;99789.09;;;12.83;83.27
78485;BME280;67773;50.806;8.776;2023-05-09T03:19:09;99793.38;;;12.86;84.14
78485;BME280;67773;50.806;8.776;2023-05-09T03:21:35;99787.38;;;12.82;83.24
78485;BME280;67773;50.806;8.776;2023-05-09T03:24:00;99779.63;;;12.78;83.46
78485;BME280;67773;50.806;8.776;2023-05-09T03:26:26;99783.59;;;12.70;83.76
78485;BME280;67773;50.806;8.776;2023-05-09T03:28:51;99781.97;;;12.68;83.77
78485;BME280;67773;50.806;8.776;2023-05-09T03:31:16;99782.94;;;12.67;84.40
78485;BME280;67773;50.806;8.776;2023-05-09T03:33:41;99795.47;;;12.65;84.16
78485;BME280;67773;50.806;8.776;2023-05-09T03:36:07;99781.22;;;12.66;84.60
78485;BME280;67773;50.806;8.776;2023-05-09T03:38:32;99789.09;;;12.67;84.34
78485;BME280;67773;50.806;8.776;2023-05-09T03:40:58;99788.25;;;12.67;84.02
78485;BME280;67773;50.806;8.776;2023-05-09T03:43:23;99785.34;;;12.71;84.18
78485;BME280;67773;50.806;8.776;2023-05-09T03:45:48;99787.72;;;12.76;83.68
78485;BME280;67773;50.806;8.776;2023-05-09T03:48:14;99786.44;;;12.83;84.07
78485;BME280;67773;50.806;8.776;2023-05-09T03:50:40;99787.00;;;12.88;83.66
78485;BME280;67773;50.806;8.776;2023-05-09T03:53:05;99785.19;;;12.89;83.64
78485;BME280;67773;50.806;8.776;2023-05-09T03:55:31;99788.72;;;12.89;83.12
78485;BME280;67773;50.806;8.776;2023-05-09T03:57:56;99788.91;;;12.86;83.12
78485;BME280;67773;50.806;8.776;2023-05-09T04:00:21;99786.81;;;12.91;83.68
78485;BME280;67773;50.806;8.776;2023-05-09T04:02:47;99782.44;;;12.90;83.34
78485;BME280;67773;50.806;8.776;2023-05-09T04:05:13;99775.16;;;12.94;83.99
78485;BME280;67773;50.806;8.776;2023-05-09T04:07:39;99774.09;;;12.96;82.89
78485;BME280;67773;50.806;8.776;2023-05-09T04:10:05;99771.09;;;13.03;83.09
78485;BME280;67773;50.806;8.776;2023-05-09T04:12:31;99766.50;;;13.05;83.35
78485;BME280;67773;50.806;8.776;2023-05-09T04:14:56;99765.47;;;13.07;82.91
78485;BME280;67773;50.806;8.776;2023-05-09T04:17:22;99757.38;;;13.09;83.64
78485;BME280;67773;50.806;8.776;2023-05-09T04:19:47;99757.28;;;13.10;83.52
78485;BME280;67773;50.806;8.776;2023-05-09T04:22:12;99751.84;;;13.12;82.71
78485;BME280;67773;50.806;8.776;2023-05-09T04:24:37;99756.75;;;13.19;82.66
78485;BME280;67773;50.806;8.776;2023-05-09T04:27:03;99757.34;;;13.24;82.59
78485;BME280;67773;50.806;8.776;2023-05-09T04:29:28;99752.03;;;13.24;82.91
78485;BME280;67773;50.806;8.776;2023-05-09T04:31:53;99756.66;;;13.21;82.54
78485;BME280;67773;50.806;8.776;2023-05-09T04:34:19;99762.25;;;13.16;82.77
78485;BME280;67773;50.806;8.776;2023-05-09T04:36:44;99752.91;;;13.09;83.35
78485;BME280;67773;50.806;8.776;2023-05-09T04:39:10;99751.28;;;13.07;83.61
78485;BME280;67773;50.806;8.776;2023-05-09T04:41:35;99752.34;;;13.04;82.85
78485;BME280;67773;50.806;8.776;2023-05-09T04:44:01;99748.81;;;13.04;83.22
78485;BME280;67773;50.806;8.776;2023-05-09T04:46:27;99756.88;;;13.02;83.48
78485;BME280;67773;50.806;8.776;2023-05-09T04:48:52;99751.53;;;13.02;83.69
78485;BME280;67773;50.806;8.776;2023-05-09T04:51:18;99749.75;;;13.03;83.93
78485;BME280;67773;50.806;8.776;2023-05-09T04:53:43;99747.09;;;13.03;83.67
78485;BME280;67773;50.806;8.776;2023-05-09T04:56:09;99751.09;;;13.10;83.78
78485;BME280;67773;50.806;8.776;2023-05-09T04:58:34;99753.50;;;13.14;83.66
78485;BME280;67773;50.806;8.776;2023-05-09T05:01:03;99746.94;;;13.20;83.31
78485;BME280;67773;50.806;8.776;2023-05-09T05:03:29;99751.53;;;13.32;82.99
78485;BME280;67773;50.806;8.776;2023-05-09T05:05:54;99763.56;;;13.53;82.82
78485;BME280;67773;50.806;8.776;2023-05-09T05:08:20;99753.06;;;13.65;82.41
78485;BME280;67773;50.806;8.776;2023-05-09T05:10:45;99750.03;;;13.71;82.18
78485;BME280;67773;50.806;8.776;2023-05-09T05:13:11;99746.91;;;13.78;81.92
78485;BME280;67773;50.806;8.776;2023-05-09T05:15:36;99740.19;;;13.85;80.58
78485;BME280;67773;50.806;8.776;2023-05-09T05:18:02;99740.47;;;13.95;81.09
78485;BME280;67773;50.806;8.776;2023-05-09T05:20:27;99730.16;;;14.03;80.42
78485;BME280;67773;50.806;8.776;2023-05-09T05:22:52;99718.03;;;14.12;79.91
78485;BME280;67773;50.806;8.776;2023-05-09T05:25:19;99715.38;;;14.12;81.03
78485;BME280;67773;50.806;8.776;2023-05-09T05:27:45;99713.19;;;14.19;79.81
78485;BME280;67773;50.806;8.776;2023-05-09T05:30:11;99710.69;;;14.15;80.05
78485;BME280;67773;50.806;8.776;2023-05-09T05:32:37;99706.31;;;14.14;78.55
78485;BME280;67773;50.806;8.776;2023-05-09T05:35:03;99701.44;;;14.21;78.65
78485;BME280;67773;50.806;8.776;2023-05-09T05:37:29;99717.91;;;14.28;78.58
78485;BME280;67773;50.806;8.776;2023-05-09T05:39:54;99716.72;;;14.46;77.59
78485;BME280;67773;50.806;8.776;2023-05-09T05:42:19;99719.69;;;14.41;78.41
78485;BME280;67773;50.806;8.776;2023-05-09T05:44:45;99712.72;;;14.39;76.56
78485;BME280;67773;50.806;8.776;2023-05-09T05:47:10;99712.22;;;14.47;77.02
78485;BME280;67773;50.806;8.776;2023-05-09T05:49:35;99703.50;;;14.57;75.93
78485;BME280;67773;50.806;8.776;2023-05-09T05:52:01;99713.22;;;14.58;76.22
78485;BME280;67773;50.806;8.776;2023-05-09T05:54:26;99710.56;;;14.58;76.33
78485;BME280;67773;50.806;8.776;2023-05-09T05:56:52;99710.56;;;14.58;76.02
78485;BME280;67773;50.806;8.776;2023-05-09T05:59:17;99713.03;;;14.61;77.45
78485;BME280;67773;50.806;8.776;2023-05-09T06:01:42;99707.84;;;14.72;78.54
78485;BME280;67773;50.806;8.776;2023-05-09T06:04:07;99708.06;;;14.82;76.68
78485;BME280;67773;50.806;8.776;2023-05-09T06:06:33;99709.06;;;14.94;77.57
78485;BME280;67773;50.806;8.776;2023-05-09T06:08:58;99695.91;;;14.91;75.08
78485;BME280;67773;50.806;8.776;2023-05-09T06:11:24;99699.56;;;15.02;76.14
78485;BME280;67773;50.806;8.776;2023-05-09T06:13:49;99702.09;;;15.29;75.40
78485;BME280;67773;50.806;8.776;2023-05-09T06:16:14;99697.50;;;15.31;73.93
78485;BME280;67773;50.806;8.776;2023-05-09T06:18:40;99695.78;;;15.30;74.87
78485;BME280;67773;50.806;8.776;2023-05-09T06:21:05;99693.56;;;15.37;72.61
78485;BME280;67773;50.806;8.776;2023-05-09T06:23:31;99680.53;;;15.33;73.84
78485;BME280;67773;50.806;8.776;2023-05-09T06:25:57;99673.88;;;15.13;74.95
78485;BME280;67773;50.806;8.776;2023-05-09T06:28:22;99675.16;;;15.07;74.56
78485;BME280;67773;50.806;8.776;2023-05-09T06:30:48;99676.47;;;15.01;75.70
78485;BME280;67773;50.806;8.776;2023-05-09T06:33:13;99680.84;;;15.02;73.97
78485;BME280;67773;50.806;8.776;2023-05-09T06:35:38;99686.50;;;15.23;72.30
78485;BME280;67773;50.806;8.776;2023-05-09T06:38:03;99680.19;;;15.24;71.48
78485;BME280;67773;50.806;8.776;2023-05-09T06:40:29;99682.66;;;15.27;70.52
78485;BME280;67773;50.806;8.776;2023-05-09T06:42:54;99678.69;;;15.46;70.09
78485;BME280;67773;50.806;8.776;2023-05-09T06:45:20;99682.66;;;15.53;69.86
78485;BME280;67773;50.806;8.776;2023-05-09T06:47:45;99667.69;;;15.63;69.53
78485;BME280;67773;50.806;8.776;2023-05-09T06:50:10;99680.25;;;15.86;68.46
78485;BME280;67773;50.806;8.776;2023-05-09T06:52:36;99671.25;;;16.11;67.71
78485;BME280;67773;50.806;8.776;2023-05-09T06:55:01;99663.44;;;16.32;66.68
78485;BME280;67773;50.806;8.776;2023-05-09T06:57:27;99661.78;;;16.42;66.74
78485;BME280;67773;50.806;8.776;2023-05-09T06:59:52;99655.97;;;16.49;66.03
78485;BME280;67773;50.806;8.776;2023-05-09T07:02:17;99650.06;;;16.32;66.13
78485;BME280;67773;50.806;8.776;2023-05-09T07:05:01;99656.44;;;16.19;67.16
78485;BME280;67773;50.806;8.776;2023-05-09T07:07:26;99656.09;;;16.23;68.08
78485;BME280;67773;50.806;8.776;2023-05-09T07:09:51;99641.09;;;16.44;67.85
78485;BME280;67773;50.806;8.776;2023-05-09T07:12:17;99639.66;;;16.52;66.22
78485;BME280;67773;50.806;8.776;2023-05-09T07:14:42;99633.81;;;16.47;66.75
78485;BME280;67773;50.806;8.776;2023-05-09T07:17:07;99639.94;;;16.60;66.42
78485;BME280;67773;50.806;8.776;2023-05-09T07:19:33;99627.34;;;16.84;66.69
78485;BME280;67773;50.806;8.776;2023-05-09T07:21:58;99628.09;;;16.97;65.73
78485;BME280;67773;50.806;8.776;2023-05-09T07:24:23;99630.44;;;17.13;64.09
78485;BME280;67773;50.806;8.776;2023-05-09T07:26:49;99634.13;;;17.12;63.67
78485;BME280;67773;50.806;8.776;2023-05-09T07:29:14;99624.97;;;17.15;64.01
78485;BME280;67773;50.806;8.776;2023-05-09T07:31:39;99621.69;;;17.22;63.70
78485;BME280;67773;50.806;8.776;2023-05-09T07:34:05;99621.81;;;17.21;64.11
78485;BME280;67773;50.806;8.776;2023-05-09T07:36:30;99615.72;;;17.30;62.81
78485;BME280;67773;50.806;8.776;2023-05-09T07:38:57;99608.38;;;17.54;62.53
78485;BME280;67773;50.806;8.776;2023-05-09T07:41:22;99606.78;;;17.74;62.11
78485;BME280;67773;50.806;8.776;2023-05-09T07:43:47;99609.94;;;17.57;61.61
78485;BME280;67773;50.806;8.776;2023-05-09T07:46:13;99606.91;;;17.39;61.94
78485;BME280;67773;50.806;8.776;2023-05-09T07:48:38;99602.50;;;17.60;62.02
78485;BME280;67773;50.806;8.776;2023-05-09T07:51:03;99603.47;;;17.71;62.83
78485;BME280;67773;50.806;8.776;2023-05-09T07:53:28;99595.41;;;17.82;62.35
78485;BME280;67773;50.806;8.776;2023-05-09T07:55:54;99595.41;;;17.93;60.12
78485;BME280;67773;50.806;8.776;2023-05-09T07:58:19;99584.66;;;17.93;60.84
78485;BME280;67773;50.806;8.776;2023-05-09T08:00:44;99585.06;;;18.09;60.23
78485;BME280;67773;50.806;8.776;2023-05-09T08:03:10;99583.25;;;18.31;59.26
78485;BME280;67773;50.806;8.776;2023-05-09T08:05:35;99577.94;;;18.20;59.88
78485;BME280;67773;50.806;8.776;2023-05-09T08:08:00;99579.16;;;18.27;59.21
78485;BME280;67773;50.806;8.776;2023-05-09T08:10:26;99574.81;;;18.14;59.62
78485;BME280;67773;50.806;8.776;2023-05-09T08:12:54;99577.13;;;18.40;59.21
78485;BME280;67773;50.806;8.776;2023-05-09T08:15:20;99558.09;;;18.53;59.20
78485;BME280;67773;50.806;8.776;2023-05-09T08:17:45;99559.50;;;18.89;57.83
78485;BME280;67773;50.806;8.776;2023-05-09T08:20:11;99556.47;;;18.82;58.16
78485;BME280;67773;50.806;8.776;2023-05-09T08:22:38;99556.72;;;19.00;57.86
78485;BME280;67773;50.806;8.776;2023-05-09T08:25:04;99555.81;;;18.90;57.58
78485;BME280;67773;50.806;8.776;2023-05-09T08:27:29;99547.44;;;19.14;57.83
78485;BME280;67773;50.806;8.776;2023-05-09T08:29:54;99541.56;;;19.39;55.63
78485;BME280;67773;50.806;8.776;2023-05-09T08:32:20;99545.16;;;19.49;55.77
78485;BME280;67773;50.806;8.776;2023-05-09T08:34:45;99533.56;;;19.68;55.84
78485;BME280;67773;50.806;8.776;2023-05-09T08:37:10;99538.28;;;20.05;54.95
78485;BME280;67773;50.806;8.776;2023-05-09T08:39:36;99533.47;;;19.89;54.81
78485;BME280;67773;50.806;8.776;2023-05-09T08:42:01;99544.16;;;19.10;56.79
78485;BME280;67773;50.806;8.776;2023-05-09T08:44:28;99543.59;;;18.76;58.27
78485;BME280;67773;50.806;8.776;2023-05-09T08:46:57;99541.28;;;18.71;58.89
78485;BME280;67773;50.806;8.776;2023-05-09T08:49:25;99538.13;;;19.18;57.67
78485;BME280;67773;50.806;8.776;2023-05-09T08:51:52;99528.69;;;19.02;57.10
78485;BME280;67773;50.806;8.776;2023-05-09T08:54:18;99527.22;;;18.89;57.49
78485;BME280;67773;50.806;8.776;2023-05-09T08:56:43;99523.78;;;18.77;58.10
78485;BME280;67773;50.806;8.776;2023-05-09T08:59:09;99527.50;;;18.65;58.45
78485;BME280;67773;50.806;8.776;2023-05-09T09:01:34;99516.00;;;18.84;58.29
78485;BME280;67773;50.806;8.776;2023-05-09T09:04:01;99506.19;;;19.53;56.24
78485;BME280;67773;50.806;8.776;2023-05-09T09:06:27;99510.22;;;19.98;55.01
78485;BME280;67773;50.806;8.776;2023-05-09T09:08:54;99503.41;;;20.03;54.75
78485;BME280;67773;50.806;8.776;2023-05-09T09:11:21;99513.47;;;19.63;55.43
78485;BME280;67773;50.806;8.776;2023-05-09T09:13:49;99503.91;;;19.49;55.50
78485;BME280;67773;50.806;8.776;2023-05-09T09:16:22;99499.03;;;19.23;56.12
78485;BME280;67773;50.806;8.776;2023-05-09T09:18:51;99492.72;;;19.03;57.35
78485;BME280;67773;50.806;8.776;2023-05-09T09:21:17;99499.25;;;18.70;57.57
78485;BME280;67773;50.806;8.776;2023-05-09T09:23:46;99494.38;;;18.64;58.26
78485;BME280;67773;50.806;8.776;2023-05-09T09:26:13;99482.00;;;18.52;58.65
78485;BME280;67773;50.806;8.776;2023-05-09T09:28:38;99476.97;;;18.89;57.79
78485;BME280;67773;50.806;8.776;2023-05-09T09:31:24;99484.53;;;18.74;59.37
78485;BME280;67773;50.806;8.776;2023-05-09T09:33:50;99478.59;;;19.11;57.41
78485;BME280;67773;50.806;8.776;2023-05-09T09:36:16;99474.44;;;18.88;57.77
78485;BME280;67773;50.806;8.776;2023-05-09T09:38:50;99471.84;;;18.56;58.29
78485;BME280;67773;50.806;8.776;2023-05-09T09:41:15;99471.94;;;18.54;58.88
78485;BME280;67773;50.806;8.776;2023-05-09T09:43:44;99465.88;;;18.52;59.33
78485;BME280;67773;50.806;8.776;2023-05-09T09:46:10;99459.25;;;18.56;59.21
78485;BME280;67773;50.806;8.776;2023-05-09T09:48:35;99461.19;;;18.75;59.02
78485;BME280;67773;50.806;8.776;2023-05-09T09:51:11;99455.97;;;18.53;59.75
78485;BME280;67773;50.806;8.776;2023-05-09T09:53:40;99455.06;;;18.42;60.05
78485;BME280;67773;50.806;8.776;2023-05-09T09:56:06;99456.94;;;18.52;60.58
78485;BME280;67773;50.806;8.776;2023-05-09T09:58:32;99451.66;;;18.40;61.27
78485;BME280;67773;50.806;8.776;2023-05-09T10:01:05;99447.97;;;18.41;60.77
78485;BME280;67773;50.806;8.776;2023-05-09T10:03:41;99452.00;;;18.47;60.50
78485;BME280;67773;50.806;8.776;2023-05-09T10:06:15;99445.94;;;18.34;60.33
78485;BME280;67773;50.806;8.776;2023-05-09T10:08:42;99439.44;;;18.27;60.82
78485;BME280;67773;50.806;8.776;2023-05-09T10:11:09;99437.19;;;18.32;60.68
78485;BME280;67773;50.806;8.776;2023-05-09T10:13:35;99439.88;;;18.62;59.92
78485;BME280;67773;50.806;8.776;2023-05-09T10:16:02;99430.38;;;18.28;60.35
78485;BME280;67773;50.806;8.776;2023-05-09T10:18:29;99422.59;;;18.55;59.67
78485;BME280;67773;50.806;8.776;2023-05-09T10:20:58;99428.75;;;19.07;58.02
78485;BME280;67773;50.806;8.776;2023-05-09T10:23:30;99423.13;;;19.20;57.72
78485;BME280;67773;50.806;8.776;2023-05-09T10:26:04;99427.59;;;19.00;58.26
78485;BME280;67773;50.806;8.776;2023-05-09T10:28:34;99416.13;;;18.98;58.49
78485;BME280;67773;50.806;8.776;2023-05-09T10:31:09;99408.38;;;19.14;58.37
78485;BME280;67773;50.806;8.776;2023-05-09T10:33:41;99405.78;;;19.03;57.91
78485;BME280;67773;50.806;8.776;2023-05-09T10:36:07;99394.78;;;19.35;57.19
78485;BME280;67773;50.806;8.776;2023-05-09T10:38:34;99390.84;;;19.49;57.34
78485;BME280;67773;50.806;8.776;2023-05-09T10:41:02;99398.81;;;19.60;56.48
78485;BME280;67773;50.806;8.776;2023-05-09T10:43:27;99379.59;;;21.31;53.00
78485;BME280;67773;50.806;8.776;2023-05-09T10:45:54;99379.59;;;22.62;49.10
78485;BME280;67773;50.806;8.776;2023-05-09T10:48:20;99378.25;;;22.40;48.26
78485;BME280;67773;50.806;8.776;2023-05-09T10:50:47;99381.41;;;21.13;50.82
78485;BME280;67773;50.806;8.776;2023-05-09T10:53:13;99378.31;;;21.08;51.65
78485;BME280;67773;50.806;8.776;2023-05-09T10:55:49;99384.84;;;20.13;53.61
78485;BME280;67773;50.806;8.776;2023-05-09T10:58:28;99371.56;;;20.76;52.35
78485;BME280;67773;50.806;8.776;2023-05-09T11:00:55;99374.06;;;21.32;50.86
78485;BME280;67773;50.806;8.776;2023-05-09T11:03:22;99351.16;;;20.91;51.86
78485;BME280;67773;50.806;8.776;2023-05-09T11:05:50;99361.97;;;20.64;53.26
78485;BME280;67773;50.806;8.776;2023-05-09T11:08:27;99346.81;;;20.16;55.07
78485;BME280;67773;50.806;8.776;2023-05-09T11:10:55;99358.81;;;19.46;57.15
78485;BME280;67773;50.806;8.776;2023-05-09T11:13:22;99362.09;;;19.40;56.54
78485;BME280;67773;50.806;8.776;2023-05-09T11:18:26;99353.94;;;18.82;59.15
78485;BME280;67773;50.806;8.776;2023-05-09T11:20:52;99350.28;;;18.92;58.48
78485;BME280;67773;50.806;8.776;2023-05-09T11:23:24;99345.59;;;18.85;59.74
78485;BME280;67773;50.806;8.776;2023-05-09T11:25:50;99346.31;;;18.77;58.74
78485;BME280;67773;50.806;8.776;2023-05-09T11:28:31;99350.03;;;19.15;57.93
78485;BME280;67773;50.806;8.776;2023-05-09T11:33:35;99336.72;;;19.52;56.78
78485;BME280;67773;50.806;8.776;2023-05-09T11:39:23;99335.88;;;19.80;55.96
78485;BME280;67773;50.806;8.776;2023-05-09T11:41:48;99329.78;;;19.20;57.44
78485;BME280;67773;50.806;8.776;2023-05-09T11:44:15;99329.34;;;19.35;57.54
78485;BME280;67773;50.806;8.776;2023-05-09T11:46:42;99326.25;;;19.10;57.32
78485;BME280;67773;50.806;8.776;2023-05-09T11:49:08;99331.75;;;18.89;57.66
78485;BME280;67773;50.806;8.776;2023-05-09T11:51:37;99322.53;;;18.82;58.48
78485;BME280;67773;50.806;8.776;2023-05-09T11:54:04;99312.78;;;19.10;58.15
78485;BME280;67773;50.806;8.776;2023-05-09T11:56:30;99304.22;;;19.92;56.06
78485;BME280;67773;50.806;8.776;2023-05-09T11:58:57;99298.88;;;20.10;55.63
78485;BME280;67773;50.806;8.776;2023-05-09T12:01:23;99293.16;;;19.85;55.94
78485;BME280;67773;50.806;8.776;2023-05-09T12:03:49;99293.88;;;19.87;56.25
78485;BME280;67773;50.806;8.776;2023-05-09T12:06:16;99292.69;;;20.00;55.79
78485;BME280;67773;50.806;8.776;2023-05-09T12:08:45;99282.50;;;19.94;56.25
78485;BME280;67773;50.806;8.776;2023-05-09T12:11:12;99285.31;;;20.02;56.56
78485;BME280;67773;50.806;8.776;2023-05-09T12:13:45;99272.03;;;19.91;56.88
78485;BME280;67773;50.806;8.776;2023-05-09T12:16:11;99264.16;;;20.44;54.25
78485;BME280;67773;50.806;8.776;2023-05-09T12:18:37;99258.88;;;20.42;53.99
78485;BME280;67773;50.806;8.776;2023-05-09T12:21:02;99260.75;;;20.87;52.99
78485;BME280;67773;50.806;8.776;2023-05-09T12:23:33;99250.31;;;20.57;53.45
78485;BME280;67773;50.806;8.776;2023-05-09T12:25:58;99252.47;;;20.53;52.55
78485;BME280;67773;50.806;8.776;2023-05-09T12:28:25;99247.72;;;20.65;51.79
78485;BME280;67773;50.806;8.776;2023-05-09T12:30:51;99242.91;;;21.12;51.58
78485;BME280;67773;50.806;8.776;2023-05-09T12:33:17;99235.91;;;21.37;50.75
78485;BME280;67773;50.806;8.776;2023-05-09T12:36:07;99238.34;;;21.48;49.85
78485;BME280;67773;50.806;8.776;2023-05-09T12:38:33;99231.72;;;21.43;50.30
78485;BME280;67773;50.806;8.776;2023-05-09T12:41:09;99235.44;;;22.02;47.41
78485;BME280;67773;50.806;8.776;2023-05-09T12:43:37;99222.84;;;21.84;47.76
78485;BME280;67773;50.806;8.776;2023-05-09T12:46:04;99229.28;;;21.57;47.37
78485;BME280;67773;50.806;8.776;2023-05-09T12:48:34;99220.88;;;20.99;48.78
78485;BME280;67773;50.806;8.776;2023-05-09T12:51:04;99213.00;;;20.52;49.71
78485;BME280;67773;50.806;8.776;2023-05-09T12:53:29;99218.63;;;20.59;49.64
78485;BME280;67773;50.806;8.776;2023-05-09T12:56:02;99215.94;;;20.31;50.25
78485;BME280;67773;50.806;8.776;2023-05-09T12:58:29;99215.88;;;20.23;51.02
78485;BME280;67773;50.806;8.776;2023-05-09T13:00:55;99213.97;;;20.06;51.77
78485;BME280;67773;50.806;8.776;2023-05-09T13:03:26;99210.97;;;20.36;50.87
78485;BME280;67773;50.806;8.776;2023-05-09T13:05:59;99210.38;;;20.15;51.58
78485;BME280;67773;50.806;8.776;2023-05-09T13:08:25;99199.47;;;19.79;52.92
78485;BME280;67773;50.806;8.776;2023-05-09T13:10:51;99197.81;;;20.06;52.26
78485;BME280;67773;50.806;8.776;2023-05-09T13:13:17;99188.97;;;20.31;51.58
78485;BME280;67773;50.806;8.776;2023-05-09T13:15:43;99187.50;;;20.46;52.30
78485;BME280;67773;50.806;8.776;2023-05-09T13:18:10;99183.66;;;20.22;52.08